sensor_id;sensor_type;location;lat;lon;timestamp;temperature;humidity
44427;DHT22;30133;47.866;-4.222;2022-10-16T00:01:43;22.50;58.60
44427;DHT22;30133;47.866;-4.222;2022-10-16T00:04:09;22.50;58.50
44427;DHT22;30133;47.866;-4.222;2022-10-16T00:06:37;22.50;58.50
44427;DHT22;30133;47.866;-4.222;2022-10-16T00:09:04;22.50;58.50
44427;DHT22;30133;47.866;-4.222;2022-10-16T00:11:34;22.50;58.60
44427;DHT22;30133;47.866;-4.222;2022-10-16T00:14:08;22.40;58.50
44427;DHT22;30133;47.866;-4.222;2022-10-16T00:16:38;22.40;58.50
44427;DHT22;30133;47.866;-4.222;2022-10-16T00:19:11;22.40;58.50
44427;DHT22;30133;47.866;-4.222;2022-10-16T00:21:38;22.40;58.60
44427;DHT22;30133;47.866;-4.222;2022-10-16T00:24:08;22.40;58.60
44427;DHT22;30133;47.866;-4.222;2022-10-16T00:26:36;22.40;58.60
44427;DHT22;30133;47.866;-4.222;2022-10-16T00:29:05;22.40;58.60
44427;DHT22;30133;47.866;-4.222;2022-10-16T00:31:32;22.40;58.60
44427;DHT22;30133;47.866;-4.222;2022-10-16T00:34:00;22.40;58.50
44427;DHT22;30133;47.866;-4.222;2022-10-16T00:36:28;22.40;58.60
44427;DHT22;30133;47.866;-4.222;2022-10-16T00:38:57;22.40;58.50
44427;DHT22;30133;47.866;-4.222;2022-10-16T00:41:26;22.40;58.60
44427;DHT22;30133;47.866;-4.222;2022-10-16T00:43:58;22.40;58.60
44427;DHT22;30133;47.866;-4.222;2022-10-16T00:46:40;22.40;58.60
44427;DHT22;30133;47.866;-4.222;2022-10-16T00:49:16;22.40;58.50
44427;DHT22;30133;47.866;-4.222;2022-10-16T00:51:47;22.40;58.60
44427;DHT22;30133;47.866;-4.222;2022-10-16T00:54:24;22.40;58.60
44427;DHT22;30133;47.866;-4.222;2022-10-16T00:57:02;22.40;58.60
44427;DHT22;30133;47.866;-4.222;2022-10-16T00:59:34;22.30;58.60
44427;DHT22;30133;47.866;-4.222;2022-10-16T01:02:05;22.30;58.50
44427;DHT22;30133;47.866;-4.222;2022-10-16T01:04:46;22.30;58.50
44427;DHT22;30133;47.866;-4.222;2022-10-16T01:07:27;22.30;58.50
44427;DHT22;30133;47.866;-4.222;2022-10-16T01:10:27;22.30;58.50
44427;DHT22;30133;47.866;-4.222;2022-10-16T01:13:18;22.30;58.50
44427;DHT22;30133;47.866;-4.222;2022-10-16T01:18:45;22.30;58.50
44427;DHT22;30133;47.866;-4.222;2022-10-16T01:21:42;22.30;58.50
44427;DHT22;30133;47.866;-4.222;2022-10-16T01:24:31;22.30;58.60
44427;DHT22;30133;47.866;-4.222;2022-10-16T01:27:09;22.30;58.50
44427;DHT22;30133;47.866;-4.222;2022-10-16T01:35:32;22.20;58.70
44427;DHT22;30133;47.866;-4.222;2022-10-16T01:38:34;22.20;58.60
44427;DHT22;30133;47.866;-4.222;2022-10-16T01:41:18;22.20;58.60
44427;DHT22;30133;47.866;-4.222;2022-10-16T01:44:36;22.20;58.60
44427;DHT22;30133;47.866;-4.222;2022-10-16T01:46:57;22.20;58.60
44427;DHT22;30133;47.866;-4.222;2022-10-16T01:49:26;22.20;58.70
44427;DHT22;30133;47.866;-4.222;2022-10-16T01:51:58;22.20;58.60
44427;DHT22;30133;47.866;-4.222;2022-10-16T01:54:28;22.20;58.60
44427;DHT22;30133;47.866;-4.222;2022-10-16T01:56:58;22.20;58.60
44427;DHT22;30133;47.866;-4.222;2022-10-16T01:59:29;22.20;58.60
44427;DHT22;30133;47.866;-4.222;2022-10-16T02:02:05;22.20;58.50
44427;DHT22;30133;47.866;-4.222;2022-10-16T02:04:47;22.20;58.50
44427;DHT22;30133;47.866;-4.222;2022-10-16T02:07:50;22.20;58.50
44427;DHT22;30133;47.866;-4.222;2022-10-16T02:10:17;22.10;58.50
44427;DHT22;30133;47.866;-4.222;2022-10-16T02:12:56;22.20;58.60
44427;DHT22;30133;47.866;-4.222;2022-10-16T02:15:30;22.20;58.50
44427;DHT22;30133;47.866;-4.222;2022-10-16T02:17:57;22.10;58.50
44427;DHT22;30133;47.866;-4.222;2022-10-16T02:20:27;22.10;58.50
44427;DHT22;30133;47.866;-4.222;2022-10-16T02:22:56;22.20;58.50
44427;DHT22;30133;47.866;-4.222;2022-10-16T02:25:37;22.10;58.50
44427;DHT22;30133;47.866;-4.222;2022-10-16T02:30:58;22.10;58.50
44427;DHT22;30133;47.866;-4.222;2022-10-16T02:33:29;22.20;58.50
44427;DHT22;30133;47.866;-4.222;2022-10-16T02:35:57;22.10;58.50
44427;DHT22;30133;47.866;-4.222;2022-10-16T02:38:25;22.10;58.50
44427;DHT22;30133;47.866;-4.222;2022-10-16T02:40:52;22.10;58.50
44427;DHT22;30133;47.866;-4.222;2022-10-16T02:43:19;22.10;58.50
44427;DHT22;30133;47.866;-4.222;2022-10-16T02:45:46;22.10;58.50
44427;DHT22;30133;47.866;-4.222;2022-10-16T02:48:15;22.10;58.50
44427;DHT22;30133;47.866;-4.222;2022-10-16T02:50:43;22.10;58.50
44427;DHT22;30133;47.866;-4.222;2022-10-16T02:53:11;22.00;58.40
44427;DHT22;30133;47.866;-4.222;2022-10-16T02:55:38;22.10;58.50
44427;DHT22;30133;47.866;-4.222;2022-10-16T02:58:05;22.10;58.50
44427;DHT22;30133;47.866;-4.222;2022-10-16T03:00:32;22.10;58.50
44427;DHT22;30133;47.866;-4.222;2022-10-16T03:02:59;22.10;58.50
44427;DHT22;30133;47.866;-4.222;2022-10-16T03:05:26;22.00;58.40
44427;DHT22;30133;47.866;-4.222;2022-10-16T03:07:52;22.10;58.50
44427;DHT22;30133;47.866;-4.222;2022-10-16T03:10:22;22.00;58.50
44427;DHT22;30133;47.866;-4.222;2022-10-16T03:12:50;22.00;58.40
44427;DHT22;30133;47.866;-4.222;2022-10-16T03:15:18;22.00;58.40
44427;DHT22;30133;47.866;-4.222;2022-10-16T03:17:45;22.00;58.40
44427;DHT22;30133;47.866;-4.222;2022-10-16T03:20:11;22.00;58.40
44427;DHT22;30133;47.866;-4.222;2022-10-16T03:22:38;22.00;58.40
44427;DHT22;30133;47.866;-4.222;2022-10-16T03:25:05;22.00;58.40
44427;DHT22;30133;47.866;-4.222;2022-10-16T03:27:32;22.00;58.40
44427;DHT22;30133;47.866;-4.222;2022-10-16T03:29:59;22.00;58.40
44427;DHT22;30133;47.866;-4.222;2022-10-16T03:32:26;22.00;58.40
44427;DHT22;30133;47.866;-4.222;2022-10-16T03:34:54;22.00;58.40
44427;DHT22;30133;47.866;-4.222;2022-10-16T03:37:23;22.00;58.40
44427;DHT22;30133;47.866;-4.222;2022-10-16T03:39:50;22.00;58.40
44427;DHT22;30133;47.866;-4.222;2022-10-16T03:42:17;22.00;58.40
44427;DHT22;30133;47.866;-4.222;2022-10-16T03:44:46;22.00;58.40
44427;DHT22;30133;47.866;-4.222;2022-10-16T03:47:13;21.90;58.30
44427;DHT22;30133;47.866;-4.222;2022-10-16T03:49:42;21.90;58.40
44427;DHT22;30133;47.866;-4.222;2022-10-16T03:52:08;21.90;58.40
44427;DHT22;30133;47.866;-4.222;2022-10-16T03:54:36;22.00;58.40
44427;DHT22;30133;47.866;-4.222;2022-10-16T03:57:03;21.90;58.40
44427;DHT22;30133;47.866;-4.222;2022-10-16T03:59:32;21.90;58.30
44427;DHT22;30133;47.866;-4.222;2022-10-16T04:02:00;21.90;58.40
44427;DHT22;30133;47.866;-4.222;2022-10-16T04:04:28;21.90;58.30
44427;DHT22;30133;47.866;-4.222;2022-10-16T04:06:57;21.90;58.30
44427;DHT22;30133;47.866;-4.222;2022-10-16T04:09:27;21.90;58.40
44427;DHT22;30133;47.866;-4.222;2022-10-16T04:11:55;21.90;58.30
44427;DHT22;30133;47.866;-4.222;2022-10-16T04:14:29;21.90;58.30
44427;DHT22;30133;47.866;-4.222;2022-10-16T04:16:57;21.90;58.30
44427;DHT22;30133;47.866;-4.222;2022-10-16T04:19:25;21.90;58.30
44427;DHT22;30133;47.866;-4.222;2022-10-16T04:21:54;21.90;58.40
44427;DHT22;30133;47.866;-4.222;2022-10-16T04:24:21;21.90;58.30
44427;DHT22;30133;47.866;-4.222;2022-10-16T04:26:48;21.90;58.30
44427;DHT22;30133;47.866;-4.222;2022-10-16T04:29:15;21.80;58.30
44427;DHT22;30133;47.866;-4.222;2022-10-16T04:31:43;21.80;58.30
44427;DHT22;30133;47.866;-4.222;2022-10-16T04:34:10;21.80;58.30
44427;DHT22;30133;47.866;-4.222;2022-10-16T04:36:37;21.80;58.30
44427;DHT22;30133;47.866;-4.222;2022-10-16T04:39:06;21.80;58.30
44427;DHT22;30133;47.866;-4.222;2022-10-16T04:41:33;21.80;58.30
44427;DHT22;30133;47.866;-4.222;2022-10-16T04:44:00;21.80;58.30
44427;DHT22;30133;47.866;-4.222;2022-10-16T04:46:27;21.80;58.30
44427;DHT22;30133;47.866;-4.222;2022-10-16T04:48:55;21.80;58.20
44427;DHT22;30133;47.866;-4.222;2022-10-16T04:51:22;21.80;58.20
44427;DHT22;30133;47.866;-4.222;2022-10-16T04:53:52;21.80;58.20
44427;DHT22;30133;47.866;-4.222;2022-10-16T04:56:21;21.80;58.20
44427;DHT22;30133;47.866;-4.222;2022-10-16T04:58:52;21.80;58.20
44427;DHT22;30133;47.866;-4.222;2022-10-16T05:01:20;21.80;58.20
44427;DHT22;30133;47.866;-4.222;2022-10-16T05:03:47;21.80;58.20
44427;DHT22;30133;47.866;-4.222;2022-10-16T05:06:15;21.80;58.20
44427;DHT22;30133;47.866;-4.222;2022-10-16T05:08:43;21.70;58.20
44427;DHT22;30133;47.866;-4.222;2022-10-16T05:11:11;21.70;58.20
44427;DHT22;30133;47.866;-4.222;2022-10-16T05:13:39;21.70;58.20
44427;DHT22;30133;47.866;-4.222;2022-10-16T05:16:07;21.70;58.20
44427;DHT22;30133;47.866;-4.222;2022-10-16T05:18:35;21.70;58.10
44427;DHT22;30133;47.866;-4.222;2022-10-16T05:21:06;21.80;58.20
44427;DHT22;30133;47.866;-4.222;2022-10-16T05:23:33;21.80;58.20
44427;DHT22;30133;47.866;-4.222;2022-10-16T05:26:01;21.80;58.20
44427;DHT22;30133;47.866;-4.222;2022-10-16T05:28:31;21.70;58.10
44427;DHT22;30133;47.866;-4.222;2022-10-16T05:30:59;21.70;58.10
44427;DHT22;30133;47.866;-4.222;2022-10-16T05:33:31;21.70;58.10
44427;DHT22;30133;47.866;-4.222;2022-10-16T05:36:03;21.70;58.10
44427;DHT22;30133;47.866;-4.222;2022-10-16T05:38:31;21.70;58.10
44427;DHT22;30133;47.866;-4.222;2022-10-16T05:40:58;21.70;58.10
44427;DHT22;30133;47.866;-4.222;2022-10-16T05:43:26;21.70;58.10
44427;DHT22;30133;47.866;-4.222;2022-10-16T05:46:19;21.70;58.10
44427;DHT22;30133;47.866;-4.222;2022-10-16T05:48:46;21.70;58.10
44427;DHT22;30133;47.866;-4.222;2022-10-16T05:51:14;21.70;58.20
44427;DHT22;30133;47.866;-4.222;2022-10-16T05:53:42;21.70;58.20
44427;DHT22;30133;47.866;-4.222;2022-10-16T05:56:10;21.70;58.20
44427;DHT22;30133;47.866;-4.222;2022-10-16T05:58:40;21.70;58.20
44427;DHT22;30133;47.866;-4.222;2022-10-16T06:01:15;21.70;58.20
44427;DHT22;30133;47.866;-4.222;2022-10-16T06:03:43;21.60;58.10
44427;DHT22;30133;47.866;-4.222;2022-10-16T06:06:16;21.60;58.10
44427;DHT22;30133;47.866;-4.222;2022-10-16T06:08:48;21.60;58.10
44427;DHT22;30133;47.866;-4.222;2022-10-16T06:11:34;21.60;58.10
44427;DHT22;30133;47.866;-4.222;2022-10-16T06:14:05;21.60;58.70
44427;DHT22;30133;47.866;-4.222;2022-10-16T06:16:39;21.60;58.10
44427;DHT22;30133;47.866;-4.222;2022-10-16T06:19:12;21.60;58.10
44427;DHT22;30133;47.866;-4.222;2022-10-16T06:21:44;21.60;58.70
44427;DHT22;30133;47.866;-4.222;2022-10-16T06:24:15;21.60;58.70
44427;DHT22;30133;47.866;-4.222;2022-10-16T06:26:43;21.60;58.10
44427;DHT22;30133;47.866;-4.222;2022-10-16T06:29:10;21.60;58.10
44427;DHT22;30133;47.866;-4.222;2022-10-16T06:31:37;21.60;58.10
44427;DHT22;30133;47.866;-4.222;2022-10-16T06:34:03;21.60;58.10
44427;DHT22;30133;47.866;-4.222;2022-10-16T06:36:36;21.60;58.10
44427;DHT22;30133;47.866;-4.222;2022-10-16T06:39:03;21.60;58.10
44427;DHT22;30133;47.866;-4.222;2022-10-16T06:41:33;21.60;58.10
44427;DHT22;30133;47.866;-4.222;2022-10-16T06:44:00;21.60;58.10
44427;DHT22;30133;47.866;-4.222;2022-10-16T06:46:27;21.50;58.00
44427;DHT22;30133;47.866;-4.222;2022-10-16T06:48:55;21.60;58.10
44427;DHT22;30133;47.866;-4.222;2022-10-16T06:51:24;21.50;58.00
44427;DHT22;30133;47.866;-4.222;2022-10-16T06:53:53;21.60;58.10
44427;DHT22;30133;47.866;-4.222;2022-10-16T06:56:24;21.60;58.10
44427;DHT22;30133;47.866;-4.222;2022-10-16T06:58:52;21.50;58.00
44427;DHT22;30133;47.866;-4.222;2022-10-16T07:01:21;21.50;58.10
44427;DHT22;30133;47.866;-4.222;2022-10-16T07:03:49;21.50;58.00
44427;DHT22;30133;47.866;-4.222;2022-10-16T07:06:19;21.50;58.00
44427;DHT22;30133;47.866;-4.222;2022-10-16T07:08:47;21.50;58.00
44427;DHT22;30133;47.866;-4.222;2022-10-16T07:11:16;21.50;58.00
44427;DHT22;30133;47.866;-4.222;2022-10-16T07:13:44;21.50;58.00
44427;DHT22;30133;47.866;-4.222;2022-10-16T07:16:17;21.60;58.10
44427;DHT22;30133;47.866;-4.222;2022-10-16T07:18:46;21.50;58.00
44427;DHT22;30133;47.866;-4.222;2022-10-16T07:21:21;21.50;58.00
44427;DHT22;30133;47.866;-4.222;2022-10-16T07:23:52;21.50;58.10
44427;DHT22;30133;47.866;-4.222;2022-10-16T07:26:20;21.50;58.10
44427;DHT22;30133;47.866;-4.222;2022-10-16T07:28:53;21.50;58.10
44427;DHT22;30133;47.866;-4.222;2022-10-16T07:31:22;21.50;58.20
44427;DHT22;30133;47.866;-4.222;2022-10-16T07:33:49;21.50;58.10
44427;DHT22;30133;47.866;-4.222;2022-10-16T07:36:17;21.50;58.00
44427;DHT22;30133;47.866;-4.222;2022-10-16T07:38:45;21.50;58.00
44427;DHT22;30133;47.866;-4.222;2022-10-16T07:41:15;21.50;58.10
44427;DHT22;30133;47.866;-4.222;2022-10-16T07:43:47;21.50;58.10
44427;DHT22;30133;47.866;-4.222;2022-10-16T07:46:26;21.50;58.10
44427;DHT22;30133;47.866;-4.222;2022-10-16T07:48:53;21.50;58.10
44427;DHT22;30133;47.866;-4.222;2022-10-16T07:51:22;21.50;58.10
44427;DHT22;30133;47.866;-4.222;2022-10-16T07:53:53;21.50;58.10
44427;DHT22;30133;47.866;-4.222;2022-10-16T07:56:21;21.50;58.10
44427;DHT22;30133;47.866;-4.222;2022-10-16T07:58:50;21.50;58.10
44427;DHT22;30133;47.866;-4.222;2022-10-16T08:01:18;21.50;58.10
44427;DHT22;30133;47.866;-4.222;2022-10-16T08:03:49;21.50;58.10
44427;DHT22;30133;47.866;-4.222;2022-10-16T08:06:18;21.50;58.10
44427;DHT22;30133;47.866;-4.222;2022-10-16T08:08:47;21.50;58.10
44427;DHT22;30133;47.866;-4.222;2022-10-16T08:11:18;21.50;58.10
44427;DHT22;30133;47.866;-4.222;2022-10-16T08:13:45;21.50;58.10
44427;DHT22;30133;47.866;-4.222;2022-10-16T08:16:12;21.50;58.10
44427;DHT22;30133;47.866;-4.222;2022-10-16T08:18:40;21.50;58.10
44427;DHT22;30133;47.866;-4.222;2022-10-16T08:21:12;21.50;58.10
44427;DHT22;30133;47.866;-4.222;2022-10-16T08:23:42;21.50;58.10
44427;DHT22;30133;47.866;-4.222;2022-10-16T08:26:10;21.50;58.10
44427;DHT22;30133;47.866;-4.222;2022-10-16T08:28:39;21.50;58.40
44427;DHT22;30133;47.866;-4.222;2022-10-16T08:31:12;21.50;58.10
44427;DHT22;30133;47.866;-4.222;2022-10-16T08:33:42;21.50;58.10
44427;DHT22;30133;47.866;-4.222;2022-10-16T08:36:14;21.50;58.10
44427;DHT22;30133;47.866;-4.222;2022-10-16T08:38:41;21.50;58.10
44427;DHT22;30133;47.866;-4.222;2022-10-16T08:49:47;21.50;58.20
44427;DHT22;30133;47.866;-4.222;2022-10-16T08:52:32;21.50;58.20
44427;DHT22;30133;47.866;-4.222;2022-10-16T08:55:03;21.50;58.20
44427;DHT22;30133;47.866;-4.222;2022-10-16T08:57:33;21.50;58.20
44427;DHT22;30133;47.866;-4.222;2022-10-16T09:00:12;21.50;58.20
44427;DHT22;30133;47.866;-4.222;2022-10-16T09:03:02;21.50;58.20
44427;DHT22;30133;47.866;-4.222;2022-10-16T09:06:04;21.50;58.20
44427;DHT22;30133;47.866;-4.222;2022-10-16T09:09:02;21.50;58.20
44427;DHT22;30133;47.866;-4.222;2022-10-16T09:17:55;21.50;58.20
44427;DHT22;30133;47.866;-4.222;2022-10-16T09:20:34;21.50;58.20
44427;DHT22;30133;47.866;-4.222;2022-10-16T09:23:16;21.50;58.20
44427;DHT22;30133;47.866;-4.222;2022-10-16T09:25:47;21.50;58.20
44427;DHT22;30133;47.866;-4.222;2022-10-16T09:28:15;21.50;58.30
44427;DHT22;30133;47.866;-4.222;2022-10-16T09:30:43;21.50;58.20
44427;DHT22;30133;47.866;-4.222;2022-10-16T09:33:11;21.50;58.20
44427;DHT22;30133;47.866;-4.222;2022-10-16T09:35:44;21.50;58.20
44427;DHT22;30133;47.866;-4.222;2022-10-16T09:38:35;21.50;58.20
44427;DHT22;30133;47.866;-4.222;2022-10-16T09:41:22;21.50;58.20
44427;DHT22;30133;47.866;-4.222;2022-10-16T09:43:57;21.50;58.20
44427;DHT22;30133;47.866;-4.222;2022-10-16T09:46:36;21.50;58.20
44427;DHT22;30133;47.866;-4.222;2022-10-16T09:49:05;21.50;58.20
44427;DHT22;30133;47.866;-4.222;2022-10-16T09:51:44;21.50;58.30
44427;DHT22;30133;47.866;-4.222;2022-10-16T09:56:40;21.50;58.20
44427;DHT22;30133;47.866;-4.222;2022-10-16T09:59:18;21.50;58.20
44427;DHT22;30133;47.866;-4.222;2022-10-16T10:02:03;21.50;58.20
44427;DHT22;30133;47.866;-4.222;2022-10-16T10:04:40;21.50;58.20
44427;DHT22;30133;47.866;-4.222;2022-10-16T10:07:18;21.50;58.30
44427;DHT22;30133;47.866;-4.222;2022-10-16T10:09:46;21.50;58.20
44427;DHT22;30133;47.866;-4.222;2022-10-16T10:14:57;21.50;58.20
44427;DHT22;30133;47.866;-4.222;2022-10-16T10:17:28;21.50;58.20
44427;DHT22;30133;47.866;-4.222;2022-10-16T10:19:59;21.50;58.20
44427;DHT22;30133;47.866;-4.222;2022-10-16T10:38:59;21.50;58.20
44427;DHT22;30133;47.866;-4.222;2022-10-16T10:52:54;21.50;58.30
44427;DHT22;30133;47.866;-4.222;2022-10-16T11:07:13;21.50;58.30
44427;DHT22;30133;47.866;-4.222;2022-10-16T11:09:52;21.50;58.30
44427;DHT22;30133;47.866;-4.222;2022-10-16T11:12:55;21.50;58.40
44427;DHT22;30133;47.866;-4.222;2022-10-16T11:15:39;21.50;58.30
44427;DHT22;30133;47.866;-4.222;2022-10-16T11:18:26;21.50;58.40
44427;DHT22;30133;47.866;-4.222;2022-10-16T11:21:08;21.50;58.40
44427;DHT22;30133;47.866;-4.222;2022-10-16T11:23:43;21.50;58.30
44427;DHT22;30133;47.866;-4.222;2022-10-16T11:26:41;21.50;58.30
44427;DHT22;30133;47.866;-4.222;2022-10-16T11:29:20;21.50;58.40
44427;DHT22;30133;47.866;-4.222;2022-10-16T11:31:54;21.50;58.40
44427;DHT22;30133;47.866;-4.222;2022-10-16T11:34:34;21.50;58.90
44427;DHT22;30133;47.866;-4.222;2022-10-16T11:37:26;21.50;58.30
44427;DHT22;30133;47.866;-4.222;2022-10-16T11:40:23;21.50;58.30
44427;DHT22;30133;47.866;-4.222;2022-10-16T11:43:30;21.50;58.40
44427;DHT22;30133;47.866;-4.222;2022-10-16T11:46:09;21.50;58.40
44427;DHT22;30133;47.866;-4.222;2022-10-16T11:51:43;21.50;58.40
44427;DHT22;30133;47.866;-4.222;2022-10-16T11:57:38;21.50;58.40
44427;DHT22;30133;47.866;-4.222;2022-10-16T12:08:49;21.50;58.40
44427;DHT22;30133;47.866;-4.222;2022-10-16T12:11:32;21.50;58.40
44427;DHT22;30133;47.866;-4.222;2022-10-16T12:16:50;21.50;58.40
44427;DHT22;30133;47.866;-4.222;2022-10-16T12:19:18;21.50;58.40
44427;DHT22;30133;47.866;-4.222;2022-10-16T12:21:45;21.50;58.40
44427;DHT22;30133;47.866;-4.222;2022-10-16T12:24:37;21.50;58.30
44427;DHT22;30133;47.866;-4.222;2022-10-16T12:30:04;21.50;58.40
44427;DHT22;30133;47.866;-4.222;2022-10-16T12:32:37;21.50;58.40
44427;DHT22;30133;47.866;-4.222;2022-10-16T12:35:26;21.50;58.40
44427;DHT22;30133;47.866;-4.222;2022-10-16T12:38:08;21.60;58.50
44427;DHT22;30133;47.866;-4.222;2022-10-16T12:40:59;21.50;58.40
44427;DHT22;30133;47.866;-4.222;2022-10-16T12:48:37;21.60;58.40
44427;DHT22;30133;47.866;-4.222;2022-10-16T12:51:21;21.60;58.40
44427;DHT22;30133;47.866;-4.222;2022-10-16T13:00:13;21.60;58.30
44427;DHT22;30133;47.866;-4.222;2022-10-16T13:14:53;21.60;58.40
44427;DHT22;30133;47.866;-4.222;2022-10-16T13:24:07;21.70;58.40
44427;DHT22;30133;47.866;-4.222;2022-10-16T13:29:39;21.60;58.40
44427;DHT22;30133;47.866;-4.222;2022-10-16T13:32:15;21.60;58.50
44427;DHT22;30133;47.866;-4.222;2022-10-16T13:34:47;21.60;58.50
44427;DHT22;30133;47.866;-4.222;2022-10-16T13:37:24;21.60;58.50
44427;DHT22;30133;47.866;-4.222;2022-10-16T13:39:50;21.60;58.40
44427;DHT22;30133;47.866;-4.222;2022-10-16T13:42:26;21.60;58.40
44427;DHT22;30133;47.866;-4.222;2022-10-16T13:44:55;21.60;58.40
44427;DHT22;30133;47.866;-4.222;2022-10-16T13:47:28;21.70;58.40
44427;DHT22;30133;47.866;-4.222;2022-10-16T13:50:09;21.70;58.50
44427;DHT22;30133;47.866;-4.222;2022-10-16T13:52:38;21.60;58.40
44427;DHT22;30133;47.866;-4.222;2022-10-16T13:55:15;21.60;58.40
44427;DHT22;30133;47.866;-4.222;2022-10-16T13:57:43;21.70;58.40
44427;DHT22;30133;47.866;-4.222;2022-10-16T14:00:25;21.60;58.40
44427;DHT22;30133;47.866;-4.222;2022-10-16T14:03:01;21.70;58.50
44427;DHT22;30133;47.866;-4.222;2022-10-16T14:05:34;21.70;58.50
44427;DHT22;30133;47.866;-4.222;2022-10-16T14:08:01;21.70;58.40
44427;DHT22;30133;47.866;-4.222;2022-10-16T14:10:32;21.70;58.40
44427;DHT22;30133;47.866;-4.222;2022-10-16T14:13:02;21.70;58.40
44427;DHT22;30133;47.866;-4.222;2022-10-16T14:15:31;21.70;58.40
44427;DHT22;30133;47.866;-4.222;2022-10-16T14:18:00;21.70;58.30
44427;DHT22;30133;47.866;-4.222;2022-10-16T14:20:31;21.70;58.30
44427;DHT22;30133;47.866;-4.222;2022-10-16T14:23:02;21.70;58.30
44427;DHT22;30133;47.866;-4.222;2022-10-16T14:25:49;21.70;58.40
44427;DHT22;30133;47.866;-4.222;2022-10-16T14:28:20;21.70;58.40
44427;DHT22;30133;47.866;-4.222;2022-10-16T14:30:57;21.70;58.40
44427;DHT22;30133;47.866;-4.222;2022-10-16T14:33:32;21.70;58.40
44427;DHT22;30133;47.866;-4.222;2022-10-16T14:38:38;21.70;58.40
44427;DHT22;30133;47.866;-4.222;2022-10-16T14:41:06;21.70;58.40
44427;DHT22;30133;47.866;-4.222;2022-10-16T14:43:43;21.70;58.40
44427;DHT22;30133;47.866;-4.222;2022-10-16T14:46:15;21.80;58.40
44427;DHT22;30133;47.866;-4.222;2022-10-16T14:48:50;21.70;58.40
44427;DHT22;30133;47.866;-4.222;2022-10-16T14:51:19;21.80;58.40
44427;DHT22;30133;47.866;-4.222;2022-10-16T14:53:49;21.70;58.40
44427;DHT22;30133;47.866;-4.222;2022-10-16T14:56:21;21.70;58.30
44427;DHT22;30133;47.866;-4.222;2022-10-16T14:58:53;21.70;58.30
44427;DHT22;30133;47.866;-4.222;2022-10-16T15:01:20;21.70;58.40
44427;DHT22;30133;47.866;-4.222;2022-10-16T15:03:48;21.70;58.30
44427;DHT22;30133;47.866;-4.222;2022-10-16T15:06:16;21.70;58.30
44427;DHT22;30133;47.866;-4.222;2022-10-16T15:08:43;21.80;58.30
44427;DHT22;30133;47.866;-4.222;2022-10-16T15:11:13;21.80;58.30
44427;DHT22;30133;47.866;-4.222;2022-10-16T15:13:41;21.80;58.30
44427;DHT22;30133;47.866;-4.222;2022-10-16T15:16:13;21.80;58.30
44427;DHT22;30133;47.866;-4.222;2022-10-16T15:18:41;21.80;58.30
44427;DHT22;30133;47.866;-4.222;2022-10-16T15:21:30;21.80;58.30
44427;DHT22;30133;47.866;-4.222;2022-10-16T15:23:58;21.80;58.30
44427;DHT22;30133;47.866;-4.222;2022-10-16T15:26:30;21.80;58.30
44427;DHT22;30133;47.866;-4.222;2022-10-16T15:28:59;21.80;58.90
44427;DHT22;30133;47.866;-4.222;2022-10-16T15:31:27;21.80;58.40
44427;DHT22;30133;47.866;-4.222;2022-10-16T15:33:54;21.80;58.40
44427;DHT22;30133;47.866;-4.222;2022-10-16T15:36:26;21.80;58.40
44427;DHT22;30133;47.866;-4.222;2022-10-16T15:38:54;21.80;58.40
44427;DHT22;30133;47.866;-4.222;2022-10-16T15:41:23;21.80;58.30
44427;DHT22;30133;47.866;-4.222;2022-10-16T15:43:57;21.80;58.40
44427;DHT22;30133;47.866;-4.222;2022-10-16T15:46:24;21.80;58.40
44427;DHT22;30133;47.866;-4.222;2022-10-16T15:48:56;21.80;58.30
44427;DHT22;30133;47.866;-4.222;2022-10-16T15:51:24;21.80;58.40
44427;DHT22;30133;47.866;-4.222;2022-10-16T15:53:56;21.80;58.30
44427;DHT22;30133;47.866;-4.222;2022-10-16T15:56:25;21.80;58.30
44427;DHT22;30133;47.866;-4.222;2022-10-16T15:58:52;21.80;58.30
44427;DHT22;30133;47.866;-4.222;2022-10-16T16:01:21;21.80;58.40
44427;DHT22;30133;47.866;-4.222;2022-10-16T16:03:54;21.80;58.30
44427;DHT22;30133;47.866;-4.222;2022-10-16T16:06:24;21.80;58.40
44427;DHT22;30133;47.866;-4.222;2022-10-16T16:08:52;21.80;58.30
44427;DHT22;30133;47.866;-4.222;2022-10-16T16:11:20;21.80;58.30
44427;DHT22;30133;47.866;-4.222;2022-10-16T16:13:47;21.80;58.30
44427;DHT22;30133;47.866;-4.222;2022-10-16T16:16:15;21.80;58.30
44427;DHT22;30133;47.866;-4.222;2022-10-16T16:18:43;21.80;58.30
44427;DHT22;30133;47.866;-4.222;2022-10-16T16:21:11;21.80;58.30
44427;DHT22;30133;47.866;-4.222;2022-10-16T16:23:38;21.80;58.30
44427;DHT22;30133;47.866;-4.222;2022-10-16T16:26:09;21.80;58.30
44427;DHT22;30133;47.866;-4.222;2022-10-16T16:28:36;21.80;58.30
44427;DHT22;30133;47.866;-4.222;2022-10-16T16:31:04;21.80;58.30
44427;DHT22;30133;47.866;-4.222;2022-10-16T16:33:30;21.80;58.30
44427;DHT22;30133;47.866;-4.222;2022-10-16T16:36:02;21.80;58.30
44427;DHT22;30133;47.866;-4.222;2022-10-16T16:38:32;21.80;58.30
44427;DHT22;30133;47.866;-4.222;2022-10-16T16:40:59;21.80;58.30
44427;DHT22;30133;47.866;-4.222;2022-10-16T16:43:48;21.80;58.30
44427;DHT22;30133;47.866;-4.222;2022-10-16T16:46:19;21.80;58.30
44427;DHT22;30133;47.866;-4.222;2022-10-16T16:48:51;21.80;58.30
44427;DHT22;30133;47.866;-4.222;2022-10-16T16:51:21;21.80;58.30
44427;DHT22;30133;47.866;-4.222;2022-10-16T16:53:50;21.80;58.30
44427;DHT22;30133;47.866;-4.222;2022-10-16T16:56:21;21.80;58.30
44427;DHT22;30133;47.866;-4.222;2022-10-16T16:58:54;21.80;58.90
44427;DHT22;30133;47.866;-4.222;2022-10-16T17:01:24;21.80;58.30
44427;DHT22;30133;47.866;-4.222;2022-10-16T17:03:53;21.80;58.30
44427;DHT22;30133;47.866;-4.222;2022-10-16T17:06:28;21.80;58.30
44427;DHT22;30133;47.866;-4.222;2022-10-16T17:08:58;21.80;58.30
44427;DHT22;30133;47.866;-4.222;2022-10-16T17:11:26;21.80;58.30
44427;DHT22;30133;47.866;-4.222;2022-10-16T17:13:54;21.80;58.30
44427;DHT22;30133;47.866;-4.222;2022-10-16T17:16:33;21.80;58.30
44427;DHT22;30133;47.866;-4.222;2022-10-16T17:19:03;21.80;58.30
44427;DHT22;30133;47.866;-4.222;2022-10-16T17:21:36;21.80;58.30
44427;DHT22;30133;47.866;-4.222;2022-10-16T17:24:04;21.80;58.30
44427;DHT22;30133;47.866;-4.222;2022-10-16T17:26:31;21.80;58.30
44427;DHT22;30133;47.866;-4.222;2022-10-16T17:29:00;21.80;58.30
44427;DHT22;30133;47.866;-4.222;2022-10-16T17:31:29;21.80;58.30
44427;DHT22;30133;47.866;-4.222;2022-10-16T17:33:59;21.80;58.30
44427;DHT22;30133;47.866;-4.222;2022-10-16T17:36:27;21.80;58.30
44427;DHT22;30133;47.866;-4.222;2022-10-16T17:39:09;21.80;58.30
44427;DHT22;30133;47.866;-4.222;2022-10-16T17:41:47;21.80;58.30
44427;DHT22;30133;47.866;-4.222;2022-10-16T17:44:13;21.80;58.30
44427;DHT22;30133;47.866;-4.222;2022-10-16T17:46:52;21.80;58.30
44427;DHT22;30133;47.866;-4.222;2022-10-16T17:49:21;21.80;58.30
44427;DHT22;30133;47.866;-4.222;2022-10-16T17:51:51;21.80;58.30
44427;DHT22;30133;47.866;-4.222;2022-10-16T17:54:19;21.80;58.30